Time;durP1;ratioP1;P1;durP2;ratioP2;P2;SDS_P1;SDS_P2;PMS_P1;PMS_P2;Temp;Humidity;BMP_temperature;BMP_pressure;BME280_temperature;BME280_humidity;BME280_pressure;Samples;Min_cycle;Max_cycle;Signal;HPM_P1;HPM_P2
2022/02/02 00:04:43;;;;;;;13.80;6.60;;;;;;;2.54;100.00;97629.13;5035253;28;20057;-79
2022/02/02 00:07:38;;;;;;;19.45;6.50;;;;;;;2.54;100.00;97629.13;5035252;28;20052;-80
2022/02/02 00:16:46;;;;;;;16.15;5.18;;;;;;;2.56;100.00;97624.75;5034325;28;20057;-79
2022/02/02 00:22:20;;;;;;;12.20;4.43;;;;;;;2.56;100.00;97626.50;5034363;28;20041;-80
2022/02/02 00:25:18;;;;;;;12.15;3.60;;;;;;;2.80;100.00;97631.00;5034900;28;20390;-80
2022/02/02 00:28:05;;;;;;;13.23;4.18;;;;;;;2.78;100.00;97632.75;5034239;28;20042;-80
2022/02/02 00:30:50;;;;;;;13.45;4.20;;;;;;;2.86;100.00;97629.09;5034316;28;20049;-80
2022/02/02 00:36:58;;;;;;;10.82;2.22;;;;;;;2.91;100.00;97646.19;5038442;28;20107;-80
2022/02/02 00:39:43;;;;;;;10.48;3.13;;;;;;;2.92;100.00;97647.03;5020409;28;20037;-80
2022/02/02 00:42:34;;;;;;;7.00;2.85;;;;;;;3.01;100.00;97652.78;5034782;28;20048;-80
2022/02/02 00:45:19;;;;;;;4.93;2.10;;;;;;;3.00;100.00;97645.09;5033937;28;20389;-80
2022/02/02 00:48:11;;;;;;;8.20;1.90;;;;;;;2.99;100.00;97641.66;5033925;28;20116;-80
2022/02/02 00:50:56;;;;;;;9.80;2.30;;;;;;;2.93;100.00;97639.25;5020045;28;20091;-80
2022/02/02 00:53:40;;;;;;;11.07;2.40;;;;;;;3.03;100.00;97648.44;5034674;28;20045;-80
2022/02/02 00:56:24;;;;;;;12.48;2.80;;;;;;;3.00;100.00;97629.56;5034311;28;20465;-80
2022/02/02 00:59:10;;;;;;;8.77;2.15;;;;;;;3.17;100.00;97631.66;5034480;28;20057;-80
2022/02/02 01:01:55;;;;;;;10.55;2.42;;;;;;;3.14;100.00;97639.50;5019951;28;20046;-80
2022/02/02 01:04:40;;;;;;;14.98;2.25;;;;;;;3.00;100.00;97627.81;5033644;28;20049;-80
2022/02/02 01:10:25;;;;;;;9.95;1.92;;;;;;;3.20;100.00;97628.97;5034176;28;20042;-80
2022/02/02 01:17:06;;;;;;;7.35;2.28;;;;;;;3.14;100.00;97637.75;5033412;28;20065;-80
2022/02/02 01:27:49;;;;;;;5.07;1.50;;;;;;;3.21;100.00;97691.00;5034107;28;20046;-79
2022/02/02 01:30:34;;;;;;;6.50;1.52;;;;;;;3.20;100.00;97672.97;5033319;28;20392;-79
2022/02/02 01:33:18;;;;;;;4.43;0.70;;;;;;;3.21;100.00;97670.31;5019400;28;20083;-80
2022/02/02 01:36:05;;;;;;;8.25;2.72;;;;;;;3.12;100.00;97668.03;5033852;28;20065;-79
2022/02/02 01:38:52;;;;;;;12.77;2.35;;;;;;;2.96;100.00;97669.34;5033160;28;20124;-80
2022/02/02 01:41:39;;;;;;;11.13;1.70;;;;;;;2.86;100.00;97663.59;5033196;28;20038;-80
2022/02/02 01:44:33;;;;;;;3.20;0.43;;;;;;;2.79;100.00;97681.00;5032931;28;20038;-80
2022/02/02 01:47:18;;;;;;;5.35;1.33;;;;;;;2.86;100.00;97670.47;5019079;28;20042;-80
2022/02/02 01:53:10;;;;;;;6.65;2.92;;;;;;;2.62;100.00;97674.59;5033725;28;20105;-80
2022/02/02 01:55:55;;;;;;;7.75;2.53;;;;;;;2.61;100.00;97686.66;5018089;28;20049;-82
2022/02/02 02:01:25;;;;;;;8.15;2.00;;;;;;;2.69;100.00;97682.13;5032795;28;20045;-81
2022/02/02 02:04:09;;;;;;;5.35;1.45;;;;;;;2.75;100.00;97681.13;5032737;28;20041;-81
2022/02/02 02:06:53;;;;;;;4.43;1.65;;;;;;;2.67;100.00;97673.59;5033371;28;20037;-81
2022/02/02 02:09:38;;;;;;;6.22;1.80;;;;;;;2.68;100.00;97683.03;5033552;28;20435;-81
2022/02/02 02:12:23;;;;;;;7.78;2.15;;;;;;;2.58;100.00;97660.91;5032704;28;20098;-81
2022/02/02 02:15:10;;;;;;;7.95;2.55;;;;;;;2.77;100.00;97671.59;5032606;28;20422;-81
2022/02/02 02:17:55;;;;;;;7.93;2.10;;;;;;;2.83;100.00;97679.19;5032677;28;20037;-81
2022/02/02 02:20:41;;;;;;;12.57;2.85;;;;;;;2.83;100.00;97675.72;5032661;28;20125;-81
2022/02/02 02:23:26;;;;;;;7.00;2.40;;;;;;;2.85;100.00;97666.19;5032509;28;20483;-82
2022/02/02 02:26:11;;;;;;;13.77;2.63;;;;;;;2.96;100.00;97670.19;5032405;28;20042;-82
2022/02/02 02:32:35;;;;;;;14.40;2.72;;;;;;;3.10;100.00;97682.72;5033146;28;20068;-82
2022/02/02 02:35:12;;;;;;;19.00;2.80;;;;;;;3.23;100.00;97680.63;5032154;28;20381;-81
2022/02/02 02:56:40;;;;;;;17.08;3.17;;;;;;;3.42;100.00;97684.38;5079909;28;20079;-83
2022/02/02 02:59:44;;;;;;;15.10;3.40;;;;;;;3.50;100.00;97659.09;5032680;28;20052;-83
2022/02/02 03:13:44;;;;;;;19.08;3.47;;;;;;;3.46;100.00;97690.28;5017996;28;20037;-84
2022/02/02 03:29:51;;;;;;;11.23;2.05;;;;;;;3.55;100.00;97700.38;5035429;28;20049;-85
2022/02/02 03:54:11;;;;;;;18.25;6.78;;;;;;;3.56;100.00;97707.25;5035588;28;20303;-87
2022/02/02 04:05:54;;;;;;;17.52;3.55;;;;;;;3.62;100.00;97726.94;5034489;28;20062;-87
2022/02/02 04:08:39;;;;;;;12.20;2.42;;;;;;;3.78;100.00;97735.09;5034766;28;20064;-87
2022/02/02 04:11:32;;;;;;;205.57;59.15;;;;;;;3.77;100.00;97743.72;5020751;28;20054;-86
2022/02/02 05:11:21;;;;;;;12.00;1.70;;;;;;;3.65;100.00;97768.25;5053141;28;20052;-85
2022/02/02 05:20:34;;;;;;;10.35;2.03;;;;;;;3.59;100.00;97773.63;5053397;28;20422;-85
2022/02/02 05:50:11;;;;;;;8.07;3.17;;;;;;;3.57;100.00;97816.81;5053080;28;20041;-86
2022/02/02 05:52:56;;;;;;;6.43;1.60;;;;;;;3.64;100.00;97813.16;5038985;28;20097;-86
2022/02/02 05:55:44;;;;;;;10.40;2.92;;;;;;;3.63;100.00;97838.19;5053342;28;20053;-86
2022/02/02 05:58:31;;;;;;;6.80;1.77;;;;;;;3.65;100.00;97838.16;5052819;28;20094;-87
2022/02/02 06:01:16;;;;;;;7.30;1.40;;;;;;;3.63;100.00;97845.13;5053386;28;20353;-86
2022/02/02 06:04:07;;;;;;;7.53;1.23;;;;;;;3.58;100.00;97847.84;5053403;28;20045;-84
2022/02/02 06:06:54;;;;;;;7.32;2.05;;;;;;;3.73;100.00;97844.81;5053301;28;20047;-85
2022/02/02 06:09:42;;;;;;;3.40;1.00;;;;;;;3.56;100.00;97844.44;5052742;28;20037;-85
2022/02/02 06:12:28;;;;;;;8.93;1.88;;;;;;;3.55;100.00;97849.69;5038907;28;20098;-84
2022/02/02 06:15:16;;;;;;;6.18;1.13;;;;;;;3.47;100.00;97847.28;5052509;28;20045;-85
2022/02/02 06:18:04;;;;;;;6.65;1.88;;;;;;;3.60;100.00;97864.16;5053108;28;20041;-85
2022/02/02 06:20:54;;;;;;;8.27;1.60;;;;;;;3.55;100.00;97854.84;5040991;28;20060;-85
2022/02/02 06:23:43;;;;;;;7.95;1.45;;;;;;;3.59;100.00;97851.28;5038244;28;20177;-85
2022/02/02 06:26:28;;;;;;;7.22;2.55;;;;;;;3.47;100.00;97848.13;5051595;28;20041;-75
2022/02/02 06:29:14;;;;;;;9.90;1.55;;;;;;;3.68;100.00;97869.16;5050433;28;20041;-74
2022/02/02 06:32:01;;;;;;;6.28;1.90;;;;;;;3.58;100.00;97865.13;5051216;28;20041;-74
2022/02/02 06:34:45;;;;;;;13.32;2.28;;;;;;;3.58;100.00;97886.69;5051621;28;20047;-74
2022/02/02 06:37:30;;;;;;;9.57;2.25;;;;;;;3.59;100.00;97890.13;5052118;28;20045;-75
2022/02/02 06:40:17;;;;;;;10.98;2.47;;;;;;;3.60;100.00;97890.06;5036914;28;20198;-75
2022/02/02 06:43:04;;;;;;;8.10;1.70;;;;;;;3.54;100.00;97894.56;5038249;28;20040;-74
2022/02/02 06:45:49;;;;;;;10.60;2.08;;;;;;;3.43;100.00;97897.44;5050304;28;20041;-74
2022/02/02 06:48:34;;;;;;;6.78;2.30;;;;;;;3.37;100.00;97900.19;5050391;28;20349;-74
2022/02/02 06:51:31;;;;;;;5.00;1.30;;;;;;;3.34;100.00;97897.69;5036341;28;20116;-76
2022/02/02 06:54:26;;;;;;;11.60;4.95;;;;;;;3.28;100.00;97896.97;5050316;28;20045;-76
2022/02/02 06:57:17;;;;;;;5.45;2.42;;;;;;;3.43;100.00;97918.16;5036244;28;20048;-76
2022/02/02 07:00:21;;;;;;;5.75;1.10;;;;;;;3.23;100.00;97911.75;5051585;28;20045;-76
2022/02/02 07:03:46;;;;;;;4.38;1.10;;;;;;;3.18;100.00;97926.53;5050932;28;20045;-76
2022/02/02 07:07:01;;;;;;;6.60;1.42;;;;;;;3.23;100.00;97940.22;5050853;28;20041;-76
2022/02/02 07:10:15;;;;;;;10.43;4.75;;;;;;;3.13;100.00;97925.81;5050199;28;20041;-76
2022/02/02 07:22:09;;;;;;;11.63;2.80;;;;;;;3.09;100.00;97931.97;5050561;28;20053;-76
2022/02/02 07:25:23;;;;;;;7.00;2.53;;;;;;;3.04;100.00;97929.47;5050589;28;20102;-76
2022/02/02 07:31:08;;;;;;;7.25;2.70;;;;;;;3.13;100.00;97956.84;5050001;28;20157;-77
2022/02/02 07:34:03;;;;;;;131.85;81.57;;;;;;;3.13;100.00;97943.06;5050663;28;20041;-77
2022/02/02 07:36:50;;;;;;;17.25;10.25;;;;;;;3.25;100.00;97951.38;5049934;28;20049;-77
2022/02/02 07:39:38;;;;;;;32.53;17.80;;;;;;;3.32;100.00;97954.66;5051244;28;20052;-77
2022/02/02 07:42:25;;;;;;;172.57;123.05;;;;;;;3.28;100.00;97947.84;5050377;28;20376;-77
2022/02/02 07:45:11;;;;;;;339.70;246.20;;;;;;;3.28;100.00;97969.44;5050285;28;20061;-77
2022/02/02 07:48:05;;;;;;;88.03;56.47;;;;;;;3.26;100.00;97954.81;5049650;28;20041;-77
2022/02/02 07:50:51;;;;;;;166.38;102.47;;;;;;;3.15;100.00;97964.56;5049661;28;20116;-77
2022/02/02 07:53:50;;;;;;;351.60;223.88;;;;;;;3.22;100.00;97976.50;5052069;28;20101;-77
2022/02/02 07:56:43;;;;;;;45.20;17.50;;;;;;;3.30;100.00;97976.28;5040734;28;20339;-77
2022/02/02 07:59:47;;;;;;;80.13;46.53;;;;;;;3.26;100.00;97970.34;5041414;28;20048;-77
2022/02/02 08:05:38;;;;;;;;;;;;;;;3.42;100.00;97966.47;5055728;28;20094;-77
2022/02/02 08:11:10;;;;;;;85.93;32.30;;;;;;;3.39;100.00;97974.31;5054585;28;20484;-77
2022/02/02 08:13:58;;;;;;;37.70;12.13;;;;;;;3.51;100.00;97978.34;5055491;28;20045;-77
2022/02/02 08:16:43;;;;;;;14.63;4.35;;;;;;;3.65;100.00;97994.38;5055538;28;20045;-76
2022/02/02 08:19:28;;;;;;;29.73;9.02;;;;;;;3.53;100.00;98002.44;5055509;28;20065;-76
2022/02/02 08:22:13;;;;;;;19.80;5.93;;;;;;;3.50;100.00;97990.41;5055176;28;20041;-76
2022/02/02 08:24:58;;;;;;;54.95;20.85;;;;;;;3.38;100.00;97989.88;5054391;28;20033;-76
2022/02/02 08:27:45;;;;;;;24.38;7.43;;;;;;;3.51;100.00;97994.72;5026213;28;20383;-77
2022/02/02 08:30:31;;;;;;;23.98;8.00;;;;;;;3.62;100.00;98009.97;5054343;28;20098;-76
2022/02/02 08:33:20;;;;;;;22.55;8.75;;;;;;;3.60;100.00;98008.31;5042942;28;20072;-76
2022/02/02 08:36:09;;;;;;;14.52;6.03;;;;;;;3.67;100.00;98004.66;5040747;28;20450;-76
2022/02/02 08:41:50;;;;;;;26.42;6.55;;;;;;;3.89;100.00;98023.94;5055450;28;20075;-76
2022/02/02 08:44:50;;;;;;;36.88;17.70;;;;;;;4.01;100.00;98033.13;5054401;28;20045;-76
2022/02/02 08:47:35;;;;;;;24.50;8.30;;;;;;;4.08;100.00;98026.03;5054378;28;20041;-76
2022/02/02 08:50:29;;;;;;;27.30;6.97;;;;;;;4.23;100.00;98038.59;5054551;28;20041;-77
2022/02/02 08:53:46;;;;;;;21.45;8.95;;;;;;;4.22;100.00;98026.50;5053953;28;20041;-77
2022/02/02 08:59:09;;;;;;;22.67;7.68;;;;;;;4.23;100.00;98033.41;5054464;28;20033;-77
2022/02/02 09:01:57;;;;;;;23.65;6.50;;;;;;;4.30;100.00;98057.41;5053957;28;20056;-77
2022/02/02 09:07:45;;;;;;;13.25;3.88;;;;;;;3.99;100.00;98059.06;5053549;28;20105;-77
2022/02/02 09:34:36;;;;;;;5.55;1.75;;;;;;;2.95;100.00;98084.03;5052312;28;20434;-76
2022/02/02 09:37:22;;;;;;;13.65;3.90;;;;;;;2.95;100.00;98079.69;5052351;28;20041;-76
2022/02/02 09:40:41;;;;;;;13.90;5.95;;;;;;;3.05;100.00;98080.34;5051264;28;20489;-76
2022/02/02 09:43:22;;;;;;;11.15;4.43;;;;;;;3.26;100.00;98103.16;5051326;28;20052;-76
2022/02/02 09:46:12;;;;;;;9.90;3.22;;;;;;;3.20;100.00;98103.28;5037227;28;20044;-74
2022/02/02 09:49:02;;;;;;;9.30;3.40;;;;;;;3.48;100.00;98113.03;5051246;28;20063;-76
2022/02/02 09:51:54;;;;;;;27.25;13.75;;;;;;;3.54;100.00;98115.44;5051928;28;20418;-76
2022/02/02 09:54:58;;;;;;;37.15;21.48;;;;;;;3.66;100.00;98111.72;5053244;28;20037;-77
2022/02/02 09:58:23;;;;;;;22.50;9.65;;;;;;;3.81;100.00;98126.06;5053704;28;20397;-78
2022/02/02 10:01:39;;;;;;;12.20;4.00;;;;;;;3.95;100.00;98123.97;5053610;28;20437;-77
2022/02/02 10:16:01;;;;;;;7.93;3.47;;;;;;;3.88;100.00;98117.25;5052198;28;20048;-76
2022/02/02 10:18:45;;;;;;;8.85;4.30;;;;;;;3.79;100.00;98128.66;5053911;28;20041;-76
2022/02/02 10:21:33;;;;;;;10.07;3.53;;;;;;;3.92;100.00;98129.22;5052909;28;20041;-76
2022/02/02 10:24:45;;;;;;;14.82;4.88;;;;;;;3.92;100.00;98126.63;5053144;28;20123;-84
2022/02/02 10:27:36;;;;;;;8.65;4.45;;;;;;;4.07;100.00;98135.78;5052474;28;20037;-83
2022/02/02 10:30:21;;;;;;;7.43;3.22;;;;;;;4.25;100.00;98135.28;5053566;28;20346;-84
2022/02/02 10:33:11;;;;;;;12.85;3.95;;;;;;;4.36;100.00;98130.69;5053191;28;20037;-83
2022/02/02 10:36:11;;;;;;;14.07;3.55;;;;;;;4.61;100.00;98125.66;5052384;28;20040;-85
2022/02/02 10:39:07;;;;;;;10.55;3.25;;;;;;;4.82;100.00;98124.22;5038925;28;20057;-84
2022/02/02 10:41:59;;;;;;;14.80;3.00;;;;;;;5.06;100.00;98117.47;5053018;28;20423;-86
2022/02/02 10:44:45;;;;;;;15.52;3.53;;;;;;;5.10;100.00;98119.09;5052611;28;20410;-83
2022/02/02 10:47:36;;;;;;;13.52;4.32;;;;;;;5.11;100.00;98114.75;5052951;28;20045;-86
2022/02/02 10:50:26;;;;;;;14.07;4.30;;;;;;;5.16;100.00;98112.84;5038248;28;20041;-84
2022/02/02 10:53:41;;;;;;;11.18;3.30;;;;;;;5.35;100.00;98129.56;5053173;28;20118;-83
2022/02/02 11:08:17;;;;;;;17.42;5.43;;;;;;;5.44;100.00;98149.22;5052949;28;20037;-77
2022/02/02 11:11:02;;;;;;;14.82;5.55;;;;;;;5.55;100.00;98138.47;5052352;28;20045;-78
2022/02/02 11:13:52;;;;;;;29.00;11.48;;;;;;;5.85;100.00;98149.66;5037858;28;20045;-77
2022/02/02 11:16:39;;;;;;;13.30;5.20;;;;;;;5.88;100.00;98161.69;5051842;28;20453;-76
2022/02/02 11:19:30;;;;;;;9.75;4.53;;;;;;;5.81;100.00;98148.91;5052535;28;20170;-77
2022/02/02 11:22:33;;;;;;;10.70;3.85;;;;;;;5.73;100.00;98161.28;5052724;28;20045;-77
2022/02/02 11:25:23;;;;;;;21.58;6.38;;;;;;;5.81;100.00;98177.47;5037542;28;20407;-77
2022/02/02 11:28:27;;;;;;;16.48;3.88;;;;;;;5.74;100.00;98188.97;5053292;28;20049;-78
2022/02/02 11:31:15;;;;;;;25.25;6.53;;;;;;;5.78;100.00;98190.56;5055175;28;20041;-76
2022/02/02 11:34:02;;;;;;;15.80;4.80;;;;;;;5.78;100.00;98187.13;5055057;28;20422;-76
2022/02/02 11:36:54;;;;;;;17.52;5.15;;;;;;;5.90;100.00;98196.28;5054997;28;20045;-76
2022/02/02 11:40:01;;;;;;;34.03;8.00;;;;;;;5.95;100.00;98197.88;5041068;28;20057;-76
2022/02/02 11:45:39;;;;;;;21.30;6.50;;;;;;;6.02;100.00;98212.38;5055989;28;20037;-76
2022/02/02 11:48:54;;;;;;;25.80;10.50;;;;;;;6.01;100.00;98208.09;5055599;28;20041;-77
2022/02/02 11:51:51;;;;;;;19.70;5.93;;;;;;;6.00;100.00;98208.13;5040989;28;20045;-77
2022/02/02 11:54:38;;;;;;;19.05;5.25;;;;;;;5.89;100.00;98224.03;5054825;28;20527;-77
2022/02/02 11:57:26;;;;;;;18.90;6.07;;;;;;;5.79;100.00;98225.22;5054967;28;20041;-77
2022/02/02 12:00:32;;;;;;;16.20;6.30;;;;;;;5.81;100.00;98215.59;5055277;28;20041;-76
2022/02/02 12:03:40;;;;;;;13.75;4.30;;;;;;;5.97;100.00;98211.66;5055129;28;20045;-76
2022/02/02 12:07:18;;;;;;;21.85;8.27;;;;;;;5.85;100.00;98223.28;5040529;28;20041;-77
2022/02/02 12:09:57;;;;;;;38.05;15.80;;;;;;;5.96;100.00;98237.72;5053392;28;20060;-77
2022/02/02 12:58:48;;;;;;;11.80;3.20;;;;;;;5.31;100.00;98322.69;5054433;28;19927;-83
2022/02/02 13:01:09;;;;;;;7.63;2.20;;;;;;;5.19;100.00;98327.34;5050337;28;20263;-77
2022/02/02 13:03:57;;;;;;;11.95;4.10;;;;;;;5.11;100.00;98341.38;5037862;28;20053;-77
2022/02/02 13:06:41;;;;;;;10.73;2.85;;;;;;;5.23;100.00;98348.00;5037830;28;20139;-77
2022/02/02 13:09:27;;;;;;;7.38;2.22;;;;;;;5.05;100.00;98343.28;5051894;28;20048;-77
2022/02/02 13:12:24;;;;;;;10.10;3.63;;;;;;;5.02;100.00;98354.59;5051992;28;20120;-77
2022/02/02 13:27:03;;;;;;;11.10;3.55;;;;;;;4.63;100.00;98388.41;5052186;28;20056;-78
2022/02/02 13:29:52;;;;;;;10.85;4.93;;;;;;;4.60;100.00;98398.00;5051505;28;20044;-78
2022/02/02 13:32:48;;;;;;;16.05;6.60;;;;;;;4.61;100.00;98391.91;5054296;28;20059;-78
2022/02/02 13:35:39;;;;;;;13.75;5.57;;;;;;;4.49;100.00;98405.19;5039812;28;20045;-78
2022/02/02 13:38:48;;;;;;;16.98;8.32;;;;;;;4.46;100.00;98408.69;5039291;28;20365;-78
2022/02/02 14:05:58;;;;;;;109.00;53.28;;;;;;;4.24;100.00;98465.34;5052780;28;20041;-78
2022/02/02 14:32:59;;;;;;;8.40;3.15;;;;;;;4.04;100.00;98532.28;5053160;28;20033;-76
2022/02/02 14:35:45;;;;;;;8.15;3.10;;;;;;;4.01;100.00;98528.00;5038952;28;20308;-77
2022/02/02 14:41:47;;;;;;;52.22;18.00;;;;;;;3.91;100.00;98563.59;5042700;28;20141;-77
2022/02/02 14:44:36;;;;;;;48.58;15.68;;;;;;;3.86;100.00;98557.63;5038291;28;20041;-78
2022/02/02 14:47:33;;;;;;;16.73;6.20;;;;;;;3.73;100.00;98558.72;5052481;28;20125;-78
2022/02/02 14:53:17;;;;;;;12.15;6.97;;;;;;;3.57;100.00;98601.28;5052993;28;20041;-77
2022/02/02 15:23:55;;;;;;;20.70;15.32;;;;;;;2.17;100.00;98693.53;5054751;28;20456;-76
2022/02/02 15:29:27;;;;;;;31.52;16.48;;;;;;;2.00;100.00;98727.28;5054130;28;20442;-77
2022/02/02 15:32:12;;;;;;;222.57;65.68;;;;;;;2.06;100.00;98740.13;5054081;28;20041;-74
2022/02/02 15:34:58;;;;;;;32.42;19.25;;;;;;;2.08;100.00;98743.56;5053322;28;20132;-77
2022/02/02 15:38:03;;;;;;;179.27;50.60;;;;;;;2.10;100.00;98753.88;5054022;28;20041;-77
2022/02/02 15:40:54;;;;;;;50.15;17.08;;;;;;;2.05;100.00;98758.25;5053068;28;20041;-77
2022/02/02 15:43:53;;;;;;;17.08;9.32;;;;;;;2.05;100.00;98760.84;5053899;28;20041;-77
2022/02/02 15:58:40;;;;;;;56.35;20.15;;;;;;;2.11;100.00;98812.41;5053615;28;20045;-77
2022/02/02 16:04:33;;;;;;;41.92;16.42;;;;;;;2.17;100.00;98833.06;5054196;28;20331;-77
2022/02/02 16:07:24;;;;;;;38.42;17.23;;;;;;;2.18;100.00;98844.25;5054007;28;20049;-77
2022/02/02 16:10:15;;;;;;;12.88;6.90;;;;;;;2.16;100.00;98846.00;5054471;28;20037;-77
2022/02/02 16:13:00;;;;;;;14.63;6.90;;;;;;;2.20;100.00;98856.28;5039737;28;20057;-77
2022/02/02 16:15:44;;;;;;;22.35;10.70;;;;;;;2.19;100.00;98864.91;5054452;28;20076;-78
2022/02/02 16:18:44;;;;;;;40.08;18.67;;;;;;;2.18;100.00;98870.06;5054402;28;20070;-77
2022/02/02 16:25:01;;;;;;;;;;;;;;;2.02;100.00;98879.66;5055546;28;20064;-77
2022/02/02 16:36:51;;;;;;;20.88;12.13;;;;;;;2.08;100.00;98908.91;5054767;28;20049;-77
2022/02/02 16:39:47;;;;;;;28.40;15.30;;;;;;;2.05;100.00;98910.66;5054039;28;20045;-77
2022/02/02 16:45:38;;;;;;;30.17;16.63;;;;;;;2.04;100.00;98932.16;5049930;28;20431;-80
2022/02/02 16:48:24;;;;;;;27.13;14.88;;;;;;;1.96;100.00;98921.03;5046693;28;20106;-79
2022/02/02 16:51:09;;;;;;;20.63;12.05;;;;;;;2.05;100.00;98944.22;5044971;28;20435;-90
2022/02/02 16:53:57;;;;;;;28.83;16.75;;;;;;;2.13;100.00;98951.94;5054042;28;20045;-91
2022/02/02 16:57:04;;;;;;;17.70;11.13;;;;;;;2.12;100.00;98966.59;5038185;28;20053;-91
2022/02/02 17:30:24;;;;;;;7.47;4.57;;;;;;;2.01;100.00;99056.16;5054022;28;20045;-91
2022/02/02 17:57:43;;;;;;;7.90;4.43;;;;;;;1.87;100.00;99076.88;5053170;28;20053;-87
2022/02/02 18:20:34;;;;;;;15.50;9.88;;;;;;;2.04;100.00;99151.75;5052530;28;20140;-89
2022/02/02 18:26:30;;;;;;;31.42;11.20;;;;;;;2.02;100.00;99168.97;5052432;28;20037;-88
2022/02/02 18:29:23;;;;;;;38.40;13.35;;;;;;;2.10;100.00;99164.66;5038436;28;20057;-85
2022/02/02 18:32:28;;;;;;;28.20;11.88;;;;;;;1.92;100.00;99150.03;5052447;28;20037;-85
2022/02/02 18:35:17;;;;;;;23.05;9.85;;;;;;;2.07;100.00;99185.31;5052383;28;20055;-84
2022/02/02 18:44:52;;;;;;;17.58;7.43;;;;;;;2.26;100.00;99199.94;5053100;28;20449;-88
2022/02/02 19:01:50;;;;;;;13.88;7.90;;;;;;;2.02;100.00;99243.91;5052169;28;20043;-88
2022/02/02 19:04:53;;;;;;;10.18;6.03;;;;;;;2.15;100.00;99231.84;5051945;28;20041;-86
2022/02/02 20:05:39;;;;;;;7.30;4.40;;;;;;;1.80;100.00;99385.91;5072612;28;20068;-90
2022/02/02 20:11:41;;;;;;;7.38;3.80;;;;;;;1.42;100.00;99382.28;5060463;28;19982;-91
2022/02/02 20:14:26;;;;;;;5.53;3.55;;;;;;;1.54;100.00;99401.28;5040498;28;20128;-91
2022/02/02 20:17:15;;;;;;;8.02;4.57;;;;;;;1.50;100.00;99425.38;5040460;28;20173;-90
2022/02/02 20:20:12;;;;;;;6.30;4.07;;;;;;;1.42;100.00;99411.53;5054520;28;20041;-89
2022/02/02 20:23:01;;;;;;;7.80;4.00;;;;;;;1.39;100.00;99420.13;5040344;28;20041;-87
2022/02/02 20:25:51;;;;;;;5.57;4.07;;;;;;;1.36;100.00;99422.69;5054236;28;20052;-90
2022/02/02 20:28:36;;;;;;;14.82;9.07;;;;;;;1.32;100.00;99433.00;5040267;28;20411;-88
2022/02/02 20:31:20;;;;;;;14.82;7.20;;;;;;;1.33;100.00;99429.53;5054290;28;20351;-88
2022/02/02 20:34:06;;;;;;;16.25;7.43;;;;;;;1.22;100.00;99424.31;5054252;28;20048;-89
2022/02/02 20:36:51;;;;;;;18.88;9.63;;;;;;;1.16;100.00;99424.28;5054377;28;20041;-90
2022/02/02 20:39:49;;;;;;;30.58;13.60;;;;;;;1.29;100.00;99440.72;5054196;28;20045;-90
2022/02/02 20:42:54;;;;;;;19.80;9.60;;;;;;;1.25;100.00;99455.31;5054781;28;20463;-91
2022/02/02 20:46:12;;;;;;;10.93;6.70;;;;;;;1.27;100.00;99448.47;5054784;28;20350;-90
2022/02/02 21:04:17;;;;;;;9.73;4.47;;;;;;;1.24;100.00;99463.06;5054577;28;20041;-90
2022/02/02 21:07:21;;;;;;;7.00;4.15;;;;;;;1.12;100.00;99471.56;5054351;28;20059;-89
2022/02/02 21:10:12;;;;;;;9.80;4.43;;;;;;;1.04;100.00;99489.56;5054285;28;20073;-90
2022/02/02 21:16:01;;;;;;;7.65;4.22;;;;;;;1.03;100.00;99500.72;5053699;28;20057;-89
2022/02/02 21:18:47;;;;;;;9.13;4.90;;;;;;;1.02;100.00;99504.16;5067835;28;20434;-90
2022/02/02 21:21:38;;;;;;;9.32;4.65;;;;;;;1.02;100.00;99513.63;5054013;28;20068;-90
2022/02/02 21:29:57;;;;;;;7.03;4.65;;;;;;;0.85;100.00;99521.19;5054128;28;20093;-90
2022/02/02 21:32:42;;;;;;;6.90;4.57;;;;;;;0.87;100.00;99510.03;5053379;28;20137;-91
2022/02/02 21:35:28;;;;;;;8.27;4.63;;;;;;;1.01;100.00;99548.88;5053254;28;20047;-89
2022/02/02 21:38:42;;;;;;;8.48;5.75;;;;;;;1.00;100.00;99526.47;5053340;28;20120;-91
2022/02/02 21:41:23;;;;;;;15.20;7.82;;;;;;;1.05;100.00;99558.34;5053198;28;20037;-92
2022/02/02 21:44:11;;;;;;;11.32;5.50;;;;;;;1.00;100.00;99548.84;5053245;28;20041;-90
2022/02/02 21:46:57;;;;;;;17.40;7.95;;;;;;;0.92;100.00;99539.31;5053188;28;20041;-88
2022/02/02 21:49:44;;;;;;;15.27;7.28;;;;;;;0.95;100.00;99556.53;5039020;28;20396;-90
2022/02/02 21:52:32;;;;;;;12.10;6.05;;;;;;;0.95;100.00;99564.28;5039143;28;20124;-91
2022/02/02 21:55:17;;;;;;;11.63;6.03;;;;;;;1.11;100.00;99573.88;5038830;28;20474;-90
2022/02/02 21:58:02;;;;;;;11.23;5.38;;;;;;;1.04;100.00;99581.53;5039033;28;20403;-89
2022/02/02 22:00:47;;;;;;;9.55;5.10;;;;;;;1.06;100.00;99579.84;5041075;28;20038;-91
2022/02/02 22:03:31;;;;;;;9.73;4.53;;;;;;;0.95;100.00;99592.66;5027320;28;20491;-92
2022/02/02 22:06:16;;;;;;;8.07;4.45;;;;;;;0.96;100.00;99590.94;4999388;28;20046;-89
2022/02/02 22:09:03;;;;;;;6.95;3.60;;;;;;;0.99;100.00;99590.97;5013961;28;20176;-91
2022/02/02 22:11:47;;;;;;;8.98;4.55;;;;;;;0.98;100.00;99595.25;5012376;28;20044;-91
2022/02/02 22:14:33;;;;;;;9.30;4.80;;;;;;;1.00;100.00;99603.00;5013927;28;20428;-91
2022/02/02 22:17:20;;;;;;;6.78;3.78;;;;;;;0.97;100.00;99593.50;5026945;28;20057;-91
2022/02/02 22:20:09;;;;;;;16.25;8.00;;;;;;;0.89;100.00;99598.59;5013734;28;20071;-89
2022/02/02 22:22:54;;;;;;;12.00;6.07;;;;;;;1.04;100.00;99612.50;5026772;28;20037;-89
2022/02/02 22:25:38;;;;;;;11.23;4.95;;;;;;;0.91;100.00;99607.22;5012805;28;20045;-90
2022/02/02 22:28:23;;;;;;;10.05;5.75;;;;;;;1.02;100.00;99611.63;5026749;28;20042;-90
2022/02/02 22:31:08;;;;;;;17.67;9.60;;;;;;;0.97;100.00;99603.81;5012809;28;20120;-88
2022/02/02 22:33:53;;;;;;;10.38;3.63;;;;;;;1.03;100.00;99615.94;5012838;28;20041;-88
2022/02/02 22:36:37;;;;;;;9.30;5.18;;;;;;;1.01;100.00;99622.78;5012927;28;20431;-89
2022/02/02 22:39:21;;;;;;;10.85;4.50;;;;;;;1.05;100.00;99628.00;5012667;28;20454;-90
2022/02/02 22:42:07;;;;;;;6.40;3.72;;;;;;;1.08;100.00;99637.50;5013329;28;20038;-89
2022/02/02 22:44:55;;;;;;;6.60;3.33;;;;;;;1.09;100.00;99650.38;4999001;28;20046;-90
2022/02/02 22:47:43;;;;;;;8.18;3.08;;;;;;;0.98;100.00;99640.81;5012769;28;20041;-90
2022/02/02 22:50:27;;;;;;;5.10;3.03;;;;;;;0.95;100.00;99644.22;5026375;28;20079;-89
2022/02/02 22:53:11;;;;;;;10.27;4.60;;;;;;;0.91;100.00;99653.66;5012601;28;20107;-90
2022/02/02 22:55:56;;;;;;;5.45;2.53;;;;;;;0.84;100.00;99653.53;5026269;28;20053;-90
2022/02/02 22:58:47;;;;;;;6.78;3.17;;;;;;;0.86;100.00;99650.13;5013152;28;20046;-88
2022/02/02 23:01:33;;;;;;;8.95;4.07;;;;;;;0.82;100.00;99645.81;5012492;28;20329;-88
2022/02/02 23:04:18;;;;;;;7.40;2.97;;;;;;;0.86;100.00;99651.84;4998546;28;20084;-88
2022/02/02 23:07:04;;;;;;;7.32;3.00;;;;;;;0.88;100.00;99653.63;5026101;28;20046;-84
2022/02/02 23:09:50;;;;;;;21.52;4.05;;;;;;;0.85;100.00;99656.16;5012493;28;20063;-88
2022/02/02 23:12:35;;;;;;;7.50;3.10;;;;;;;0.87;100.00;99669.91;5026202;28;20038;-85
2022/02/02 23:15:26;;;;;;;10.07;4.32;;;;;;;0.73;100.00;99666.31;5012929;28;20048;-85
2022/02/02 23:18:23;;;;;;;10.35;3.55;;;;;;;0.74;100.00;99677.50;5025993;28;20351;-85
2022/02/02 23:21:10;;;;;;;11.13;3.67;;;;;;;0.71;100.00;99670.56;5012140;28;20042;-86
2022/02/02 23:24:02;;;;;;;7.63;3.65;;;;;;;0.79;100.00;99684.44;5028826;28;20137;-85
2022/02/02 23:26:48;;;;;;;6.50;3.08;;;;;;;0.73;100.00;99679.22;5016191;28;20454;-85
2022/02/02 23:29:38;;;;;;;7.35;3.78;;;;;;;0.80;100.00;99699.06;5015551;28;20098;-85
2022/02/02 23:32:25;;;;;;;8.77;3.00;;;;;;;0.76;100.00;99707.59;5015424;28;20126;-85
2022/02/02 23:35:10;;;;;;;5.45;2.30;;;;;;;0.59;100.00;99697.09;5029401;28;20041;-85
2022/02/02 23:37:55;;;;;;;7.57;2.95;;;;;;;0.72;100.00;99702.41;5029481;28;20106;-87
2022/02/02 23:43:49;;;;;;;7.32;3.25;;;;;;;0.70;100.00;99720.41;5036753;28;20058;-86
2022/02/02 23:46:43;;;;;;;11.70;3.72;;;;;;;0.61;100.00;99709.97;5015176;28;20357;-87
2022/02/02 23:49:37;;;;;;;8.60;3.67;;;;;;;0.65;100.00;99727.22;5001379;28;20049;-89
2022/02/02 23:52:37;;;;;;;6.68;3.08;;;;;;;0.58;100.00;99727.97;5015898;28;20114;-87
2022/02/02 23:55:32;;;;;;;9.65;4.38;;;;;;;0.52;100.00;99717.56;5014925;28;20049;-87